sensor_id;sensor_type;location;lat;lon;timestamp;pressure;altitude;pressure_sealevel;temperature;humidity
61287;BME280;56412;53.148;8.204;2022-09-29T00:01:35;99979.03;;;10.80;56.81
61287;BME280;56412;53.148;8.204;2022-09-29T00:04:01;99982.38;;;10.69;57.63
61287;BME280;56412;53.148;8.204;2022-09-29T00:06:26;99985.16;;;10.66;56.80
61287;BME280;56412;53.148;8.204;2022-09-29T00:08:51;99981.97;;;10.62;56.81
61287;BME280;56412;53.148;8.204;2022-09-29T00:11:17;99987.16;;;10.62;57.52
61287;BME280;56412;53.148;8.204;2022-09-29T00:13:43;99977.50;;;10.64;57.23
61287;BME280;56412;53.148;8.204;2022-09-29T00:16:10;99981.75;;;10.65;57.15
61287;BME280;56412;53.148;8.204;2022-09-29T00:18:36;99984.56;;;10.62;56.74
61287;BME280;56412;53.148;8.204;2022-09-29T00:23:34;99981.75;;;10.53;57.03
61287;BME280;56412;53.148;8.204;2022-09-29T00:26:00;99966.34;;;10.51;57.45
61287;BME280;56412;53.148;8.204;2022-09-29T00:28:34;99973.59;;;10.46;56.69
61287;BME280;56412;53.148;8.204;2022-09-29T00:31:01;99972.88;;;10.44;57.34
61287;BME280;56412;53.148;8.204;2022-09-29T00:33:28;99974.16;;;10.38;57.16
61287;BME280;56412;53.148;8.204;2022-09-29T00:35:55;99971.56;;;10.38;56.85
61287;BME280;56412;53.148;8.204;2022-09-29T00:38:22;99978.16;;;10.42;57.90
61287;BME280;56412;53.148;8.204;2022-09-29T00:40:48;99968.00;;;10.52;57.52
61287;BME280;56412;53.148;8.204;2022-09-29T00:43:15;99979.28;;;10.51;57.37
61287;BME280;56412;53.148;8.204;2022-09-29T00:45:45;99976.09;;;10.48;57.07
61287;BME280;56412;53.148;8.204;2022-09-29T00:48:15;99976.09;;;10.48;57.52
61287;BME280;56412;53.148;8.204;2022-09-29T00:50:47;99981.16;;;10.49;57.47
61287;BME280;56412;53.148;8.204;2022-09-29T00:53:16;99981.06;;;10.51;57.92
61287;BME280;56412;53.148;8.204;2022-09-29T00:56:01;99978.56;;;10.49;57.45
61287;BME280;56412;53.148;8.204;2022-09-29T00:58:42;99973.59;;;10.46;57.15
61287;BME280;56412;53.148;8.204;2022-09-29T01:01:19;99972.16;;;10.42;56.59
61287;BME280;56412;53.148;8.204;2022-09-29T01:03:45;99976.53;;;10.41;57.28
61287;BME280;56412;53.148;8.204;2022-09-29T01:06:14;99980.16;;;10.39;57.18
61287;BME280;56412;53.148;8.204;2022-09-29T01:08:59;99977.78;;;10.36;57.23
61287;BME280;56412;53.148;8.204;2022-09-29T01:11:27;99980.56;;;10.33;57.70
61287;BME280;56412;53.148;8.204;2022-09-29T01:13:54;99981.59;;;10.30;58.12
61287;BME280;56412;53.148;8.204;2022-09-29T01:16:25;99981.00;;;10.27;57.53
61287;BME280;56412;53.148;8.204;2022-09-29T01:18:50;99988.28;;;10.20;57.24
61287;BME280;56412;53.148;8.204;2022-09-29T01:21:20;99983.31;;;10.17;57.75
61287;BME280;56412;53.148;8.204;2022-09-29T01:24:07;99982.72;;;10.13;57.75
61287;BME280;56412;53.148;8.204;2022-09-29T01:35:39;99975.97;;;10.11;57.65
61287;BME280;56412;53.148;8.204;2022-09-29T01:38:13;99972.66;;;10.09;57.63
61287;BME280;56412;53.148;8.204;2022-09-29T01:41:09;99986.44;;;10.09;57.14
61287;BME280;56412;53.148;8.204;2022-09-29T01:43:46;99979.72;;;10.07;57.66
61287;BME280;56412;53.148;8.204;2022-09-29T01:46:21;99980.00;;;10.02;58.93
61287;BME280;56412;53.148;8.204;2022-09-29T01:48:51;99979.09;;;10.16;58.38
61287;BME280;56412;53.148;8.204;2022-09-29T01:51:22;99983.44;;;10.15;58.25
61287;BME280;56412;53.148;8.204;2022-09-29T01:54:09;99981.97;;;10.11;58.08
61287;BME280;56412;53.148;8.204;2022-09-29T01:56:48;99984.78;;;10.21;58.21
61287;BME280;56412;53.148;8.204;2022-09-29T01:59:21;99988.22;;;10.34;58.00
61287;BME280;56412;53.148;8.204;2022-09-29T02:01:53;99985.97;;;10.30;58.20
61287;BME280;56412;53.148;8.204;2022-09-29T02:04:28;99993.06;;;10.26;58.40
61287;BME280;56412;53.148;8.204;2022-09-29T02:07:43;99986.78;;;10.30;57.64
61287;BME280;56412;53.148;8.204;2022-09-29T02:09:47;99983.66;;;10.25;57.61
61287;BME280;56412;53.148;8.204;2022-09-29T02:12:18;99985.91;;;10.17;57.86
61287;BME280;56412;53.148;8.204;2022-09-29T02:14:49;99987.16;;;10.11;57.10
61287;BME280;56412;53.148;8.204;2022-09-29T02:17:18;99984.56;;;10.11;57.48
61287;BME280;56412;53.148;8.204;2022-09-29T02:19:47;99986.13;;;10.14;57.83
61287;BME280;56412;53.148;8.204;2022-09-29T02:22:15;99991.72;;;10.20;57.36
61287;BME280;56412;53.148;8.204;2022-09-29T02:24:42;99986.53;;;10.20;57.26
61287;BME280;56412;53.148;8.204;2022-09-29T02:27:08;99984.28;;;10.16;58.26
61287;BME280;56412;53.148;8.204;2022-09-29T02:29:33;99995.66;;;10.13;57.80
61287;BME280;56412;53.148;8.204;2022-09-29T02:32:01;99986.44;;;10.09;57.61
61287;BME280;56412;53.148;8.204;2022-09-29T02:34:28;99991.84;;;10.06;57.87
61287;BME280;56412;53.148;8.204;2022-09-29T02:37:11;99990.38;;;10.02;57.03
61287;BME280;56412;53.148;8.204;2022-09-29T02:45:32;100002.56;;;9.87;58.19
61287;BME280;56412;53.148;8.204;2022-09-29T02:50:43;99995.63;;;9.88;57.56
61287;BME280;56412;53.148;8.204;2022-09-29T02:56:22;99999.78;;;9.90;57.69
61287;BME280;56412;53.148;8.204;2022-09-29T03:01:18;100004.25;;;9.88;58.15
61287;BME280;56412;53.148;8.204;2022-09-29T03:03:43;100015.28;;;9.90;57.77
61287;BME280;56412;53.148;8.204;2022-09-29T03:06:09;100005.97;;;9.88;57.80
61287;BME280;56412;53.148;8.204;2022-09-29T03:08:35;100006.19;;;9.85;57.59
61287;BME280;56412;53.148;8.204;2022-09-29T03:11:00;100011.16;;;9.88;58.17
61287;BME280;56412;53.148;8.204;2022-09-29T03:13:26;100018.91;;;9.88;58.90
61287;BME280;56412;53.148;8.204;2022-09-29T03:15:51;100022.22;;;9.90;57.73
61287;BME280;56412;53.148;8.204;2022-09-29T03:18:16;100026.66;;;9.88;58.39
61287;BME280;56412;53.148;8.204;2022-09-29T03:20:42;100019.03;;;9.86;58.19
61287;BME280;56412;53.148;8.204;2022-09-29T03:23:07;100022.09;;;9.78;58.92
61287;BME280;56412;53.148;8.204;2022-09-29T03:25:32;100014.88;;;9.84;58.68
61287;BME280;56412;53.148;8.204;2022-09-29T03:27:58;100013.66;;;9.89;58.15
61287;BME280;56412;53.148;8.204;2022-09-29T03:30:23;100016.31;;;9.88;58.84
61287;BME280;56412;53.148;8.204;2022-09-29T03:32:49;100015.81;;;9.83;58.60
61287;BME280;56412;53.148;8.204;2022-09-29T03:35:14;100009.91;;;9.81;58.82
61287;BME280;56412;53.148;8.204;2022-09-29T03:37:40;100016.03;;;9.80;58.79
61287;BME280;56412;53.148;8.204;2022-09-29T03:40:05;100009.16;;;9.78;58.08
61287;BME280;56412;53.148;8.204;2022-09-29T03:42:31;100006.78;;;9.75;58.79
61287;BME280;56412;53.148;8.204;2022-09-29T03:44:56;100018.75;;;9.64;58.78
61287;BME280;56412;53.148;8.204;2022-09-29T03:47:22;100019.50;;;9.66;58.54
61287;BME280;56412;53.148;8.204;2022-09-29T03:49:48;100011.13;;;9.62;58.89
61287;BME280;56412;53.148;8.204;2022-09-29T03:52:13;100019.91;;;9.60;58.92
61287;BME280;56412;53.148;8.204;2022-09-29T03:54:38;100022.91;;;9.66;58.83
61287;BME280;56412;53.148;8.204;2022-09-29T03:57:03;100029.03;;;9.65;59.26
61287;BME280;56412;53.148;8.204;2022-09-29T03:59:29;100019.91;;;9.72;59.08
61287;BME280;56412;53.148;8.204;2022-09-29T04:01:54;100021.06;;;9.68;58.90
61287;BME280;56412;53.148;8.204;2022-09-29T04:04:20;100019.38;;;9.67;59.24
61287;BME280;56412;53.148;8.204;2022-09-29T04:06:45;100024.75;;;9.64;59.03
61287;BME280;56412;53.148;8.204;2022-09-29T04:09:10;100024.13;;;9.61;58.93
61287;BME280;56412;53.148;8.204;2022-09-29T04:11:36;100026.75;;;9.73;59.26
61287;BME280;56412;53.148;8.204;2022-09-29T04:14:02;100037.41;;;9.69;59.40
61287;BME280;56412;53.148;8.204;2022-09-29T04:16:27;100044.59;;;9.51;59.63
61287;BME280;56412;53.148;8.204;2022-09-29T04:18:52;100039.56;;;9.35;59.75
61287;BME280;56412;53.148;8.204;2022-09-29T04:21:18;100042.91;;;9.50;59.18
61287;BME280;56412;53.148;8.204;2022-09-29T04:23:43;100046.97;;;9.54;59.14
61287;BME280;56412;53.148;8.204;2022-09-29T04:26:09;100040.66;;;9.58;59.21
61287;BME280;56412;53.148;8.204;2022-09-29T04:28:35;100045.22;;;9.54;59.76
61287;BME280;56412;53.148;8.204;2022-09-29T04:31:01;100041.81;;;9.54;59.32
61287;BME280;56412;53.148;8.204;2022-09-29T04:33:26;100040.53;;;9.47;59.60
61287;BME280;56412;53.148;8.204;2022-09-29T04:35:53;100033.84;;;9.57;59.70
61287;BME280;56412;53.148;8.204;2022-09-29T04:38:19;100040.22;;;9.39;60.26
61287;BME280;56412;53.148;8.204;2022-09-29T04:40:45;100036.34;;;9.31;60.11
61287;BME280;56412;53.148;8.204;2022-09-29T04:43:11;100034.78;;;9.29;60.68
61287;BME280;56412;53.148;8.204;2022-09-29T04:45:36;100033.91;;;9.43;60.38
61287;BME280;56412;53.148;8.204;2022-09-29T04:48:01;100035.00;;;9.53;59.35
61287;BME280;56412;53.148;8.204;2022-09-29T04:50:27;100034.47;;;9.61;59.86
61287;BME280;56412;53.148;8.204;2022-09-29T04:52:53;100036.84;;;9.51;60.12
61287;BME280;56412;53.148;8.204;2022-09-29T04:55:18;100031.34;;;9.55;59.82
61287;BME280;56412;53.148;8.204;2022-09-29T04:57:43;100035.41;;;9.60;59.28
61287;BME280;56412;53.148;8.204;2022-09-29T05:00:10;100043.19;;;9.32;60.55
61287;BME280;56412;53.148;8.204;2022-09-29T05:02:36;100035.81;;;9.53;59.66
61287;BME280;56412;53.148;8.204;2022-09-29T05:05:03;100044.88;;;9.46;59.92
61287;BME280;56412;53.148;8.204;2022-09-29T05:07:29;100040.72;;;9.44;59.79
61287;BME280;56412;53.148;8.204;2022-09-29T05:09:55;100040.16;;;9.53;59.19
61287;BME280;56412;53.148;8.204;2022-09-29T05:12:20;100046.88;;;9.55;59.41
61287;BME280;56412;53.148;8.204;2022-09-29T05:14:46;100044.59;;;9.51;59.85
61287;BME280;56412;53.148;8.204;2022-09-29T05:17:11;100050.34;;;9.42;59.57
61287;BME280;56412;53.148;8.204;2022-09-29T05:19:37;100051.91;;;9.44;59.80
61287;BME280;56412;53.148;8.204;2022-09-29T05:22:03;100060.94;;;9.10;60.84
61287;BME280;56412;53.148;8.204;2022-09-29T05:24:28;100052.34;;;9.24;61.19
61287;BME280;56412;53.148;8.204;2022-09-29T05:26:53;100060.22;;;9.35;60.20
61287;BME280;56412;53.148;8.204;2022-09-29T05:29:19;100055.91;;;9.36;60.59
61287;BME280;56412;53.148;8.204;2022-09-29T05:31:44;100059.34;;;9.49;60.43
61287;BME280;56412;53.148;8.204;2022-09-29T05:34:10;100061.34;;;9.58;60.22
61287;BME280;56412;53.148;8.204;2022-09-29T05:36:35;100072.47;;;9.46;59.46
61287;BME280;56412;53.148;8.204;2022-09-29T05:39:00;100065.78;;;9.29;60.21
61287;BME280;56412;53.148;8.204;2022-09-29T05:41:26;100070.19;;;9.41;60.31
61287;BME280;56412;53.148;8.204;2022-09-29T05:43:51;100070.72;;;9.46;59.94
61287;BME280;56412;53.148;8.204;2022-09-29T05:46:18;100067.91;;;9.37;60.38
61287;BME280;56412;53.148;8.204;2022-09-29T05:48:45;100074.28;;;9.31;60.25
61287;BME280;56412;53.148;8.204;2022-09-29T05:51:15;100072.25;;;9.36;60.71
61287;BME280;56412;53.148;8.204;2022-09-29T05:53:41;100078.19;;;9.24;60.73
61287;BME280;56412;53.148;8.204;2022-09-29T05:56:11;100083.59;;;9.33;60.60
61287;BME280;56412;53.148;8.204;2022-09-29T05:58:40;100083.00;;;9.43;60.42
61287;BME280;56412;53.148;8.204;2022-09-29T06:01:06;100080.97;;;9.48;60.14
61287;BME280;56412;53.148;8.204;2022-09-29T06:03:36;100086.94;;;9.63;60.18
61287;BME280;56412;53.148;8.204;2022-09-29T06:06:08;100084.19;;;9.78;59.71
61287;BME280;56412;53.148;8.204;2022-09-29T06:08:34;100091.53;;;9.85;59.80
61287;BME280;56412;53.148;8.204;2022-09-29T06:11:02;100087.72;;;9.90;60.22
61287;BME280;56412;53.148;8.204;2022-09-29T06:13:32;100097.47;;;9.99;60.27
61287;BME280;56412;53.148;8.204;2022-09-29T06:16:01;100094.00;;;10.13;59.59
61287;BME280;56412;53.148;8.204;2022-09-29T06:18:26;100097.09;;;10.18;60.04
61287;BME280;56412;53.148;8.204;2022-09-29T06:20:51;100098.16;;;10.29;59.49
61287;BME280;56412;53.148;8.204;2022-09-29T06:23:16;100090.41;;;10.29;59.27
61287;BME280;56412;53.148;8.204;2022-09-29T06:25:42;100090.69;;;10.24;59.01
61287;BME280;56412;53.148;8.204;2022-09-29T06:28:07;100093.22;;;10.38;59.49
61287;BME280;56412;53.148;8.204;2022-09-29T06:30:32;100096.97;;;10.60;59.15
61287;BME280;56412;53.148;8.204;2022-09-29T06:32:58;100100.78;;;10.80;59.14
61287;BME280;56412;53.148;8.204;2022-09-29T06:35:23;100099.38;;;11.00;58.96
61287;BME280;56412;53.148;8.204;2022-09-29T06:38:07;100109.13;;;11.09;58.23
61287;BME280;56412;53.148;8.204;2022-09-29T06:40:32;100106.38;;;10.74;59.32
61287;BME280;56412;53.148;8.204;2022-09-29T06:42:57;100107.31;;;10.73;59.49
61287;BME280;56412;53.148;8.204;2022-09-29T06:45:23;100110.63;;;10.49;59.63
61287;BME280;56412;53.148;8.204;2022-09-29T06:47:48;100114.06;;;10.10;60.14
61287;BME280;56412;53.148;8.204;2022-09-29T06:50:13;100119.41;;;9.25;63.08
61287;BME280;56412;53.148;8.204;2022-09-29T06:52:39;100120.66;;;10.01;61.71
61287;BME280;56412;53.148;8.204;2022-09-29T06:55:04;100126.03;;;9.98;61.96
61287;BME280;56412;53.148;8.204;2022-09-29T06:57:30;100119.31;;;10.08;61.48
61287;BME280;56412;53.148;8.204;2022-09-29T06:59:55;100117.41;;;10.24;60.86
61287;BME280;56412;53.148;8.204;2022-09-29T07:02:20;100120.16;;;10.74;60.79
61287;BME280;56412;53.148;8.204;2022-09-29T07:04:46;100124.56;;;11.10;59.61
61287;BME280;56412;53.148;8.204;2022-09-29T07:07:12;100126.09;;;11.26;58.86
61287;BME280;56412;53.148;8.204;2022-09-29T07:09:38;100122.47;;;11.52;59.24
61287;BME280;56412;53.148;8.204;2022-09-29T07:12:03;100123.13;;;11.56;58.58
61287;BME280;56412;53.148;8.204;2022-09-29T07:14:30;100121.56;;;11.53;58.13
61287;BME280;56412;53.148;8.204;2022-09-29T07:16:55;100127.78;;;11.51;58.85
61287;BME280;56412;53.148;8.204;2022-09-29T07:19:23;100131.19;;;11.27;59.17
61287;BME280;56412;53.148;8.204;2022-09-29T07:21:48;100130.47;;;11.00;59.33
61287;BME280;56412;53.148;8.204;2022-09-29T07:24:14;100131.44;;;10.73;60.86
61287;BME280;56412;53.148;8.204;2022-09-29T07:26:40;100138.47;;;10.97;60.71
61287;BME280;56412;53.148;8.204;2022-09-29T07:29:05;100141.50;;;11.03;60.78
61287;BME280;56412;53.148;8.204;2022-09-29T07:31:30;100148.41;;;11.52;59.55
61287;BME280;56412;53.148;8.204;2022-09-29T07:33:56;100144.66;;;11.93;58.55
61287;BME280;56412;53.148;8.204;2022-09-29T07:36:21;100146.44;;;12.28;58.08
61287;BME280;56412;53.148;8.204;2022-09-29T07:38:47;100160.59;;;12.24;58.12
61287;BME280;56412;53.148;8.204;2022-09-29T07:41:15;100158.94;;;11.38;59.48
61287;BME280;56412;53.148;8.204;2022-09-29T07:43:42;100154.97;;;10.96;60.49
61287;BME280;56412;53.148;8.204;2022-09-29T07:46:07;100160.47;;;11.53;60.16
61287;BME280;56412;53.148;8.204;2022-09-29T07:48:33;100151.94;;;11.88;58.58
61287;BME280;56412;53.148;8.204;2022-09-29T07:51:13;100168.50;;;12.22;58.24
61287;BME280;56412;53.148;8.204;2022-09-29T07:53:43;100164.50;;;11.57;59.36
61287;BME280;56412;53.148;8.204;2022-09-29T07:56:10;100162.72;;;11.08;61.37
61287;BME280;56412;53.148;8.204;2022-09-29T07:58:42;100166.88;;;11.60;60.03
61287;BME280;56412;53.148;8.204;2022-09-29T08:01:08;100176.06;;;12.25;59.37
61287;BME280;56412;53.148;8.204;2022-09-29T08:03:40;100178.66;;;12.72;58.01
61287;BME280;56412;53.148;8.204;2022-09-29T08:06:07;100187.31;;;12.95;57.62
61287;BME280;56412;53.148;8.204;2022-09-29T08:08:36;100185.19;;;13.23;57.07
61287;BME280;56412;53.148;8.204;2022-09-29T08:11:06;100177.75;;;13.18;56.93
61287;BME280;56412;53.148;8.204;2022-09-29T08:13:36;100182.59;;;13.23;57.00
61287;BME280;56412;53.148;8.204;2022-09-29T08:16:03;100188.16;;;13.63;56.51
61287;BME280;56412;53.148;8.204;2022-09-29T08:18:30;100198.69;;;13.50;55.77
61287;BME280;56412;53.148;8.204;2022-09-29T08:20:57;100193.94;;;13.22;56.11
61287;BME280;56412;53.148;8.204;2022-09-29T08:23:23;100196.56;;;12.17;58.87
61287;BME280;56412;53.148;8.204;2022-09-29T08:26:00;100197.00;;;12.11;59.65
61287;BME280;56412;53.148;8.204;2022-09-29T08:28:30;100198.97;;;12.78;58.02
61287;BME280;56412;53.148;8.204;2022-09-29T08:31:09;100207.50;;;13.03;57.51
61287;BME280;56412;53.148;8.204;2022-09-29T08:33:36;100215.13;;;13.62;56.21
61287;BME280;56412;53.148;8.204;2022-09-29T08:36:03;100208.19;;;13.95;55.85
61287;BME280;56412;53.148;8.204;2022-09-29T08:38:38;100214.25;;;13.84;55.90
61287;BME280;56412;53.148;8.204;2022-09-29T08:41:08;100223.94;;;13.82;55.99
61287;BME280;56412;53.148;8.204;2022-09-29T08:43:57;100209.63;;;12.86;58.42
61287;BME280;56412;53.148;8.204;2022-09-29T08:46:32;100212.19;;;12.64;58.83
61287;BME280;56412;53.148;8.204;2022-09-29T08:49:18;100215.53;;;13.00;57.93
61287;BME280;56412;53.148;8.204;2022-09-29T08:51:50;100224.16;;;13.90;56.44
61287;BME280;56412;53.148;8.204;2022-09-29T08:54:21;100224.78;;;14.15;55.47
61287;BME280;56412;53.148;8.204;2022-09-29T08:56:51;100222.06;;;14.48;54.73
61287;BME280;56412;53.148;8.204;2022-09-29T08:59:17;100222.56;;;14.74;54.40
61287;BME280;56412;53.148;8.204;2022-09-29T09:18:31;100238.16;;;15.47;54.21
61287;BME280;56412;53.148;8.204;2022-09-29T09:21:07;100238.31;;;15.55;53.26
61287;BME280;56412;53.148;8.204;2022-09-29T09:24:19;100236.66;;;14.93;54.65
61287;BME280;56412;53.148;8.204;2022-09-29T09:26:42;100230.28;;;15.68;52.98
61287;BME280;56412;53.148;8.204;2022-09-29T09:29:12;100228.56;;;16.07;51.58
61287;BME280;56412;53.148;8.204;2022-09-29T09:31:49;100234.03;;;15.85;51.99
61287;BME280;56412;53.148;8.204;2022-09-29T09:34:23;100233.78;;;16.07;52.25
61287;BME280;56412;53.148;8.204;2022-09-29T09:36:57;100231.59;;;16.51;51.47
61287;BME280;56412;53.148;8.204;2022-09-29T09:39:37;100230.78;;;16.80;51.08
61287;BME280;56412;53.148;8.204;2022-09-29T09:42:17;100231.81;;;16.97;50.73
61287;BME280;56412;53.148;8.204;2022-09-29T09:44:46;100228.69;;;16.74;49.95
61287;BME280;56412;53.148;8.204;2022-09-29T09:50:00;100234.34;;;16.40;50.78
61287;BME280;56412;53.148;8.204;2022-09-29T09:52:38;100242.72;;;16.15;50.30
61287;BME280;56412;53.148;8.204;2022-09-29T09:55:12;100236.25;;;15.89;51.34
61287;BME280;56412;53.148;8.204;2022-09-29T10:00:27;100243.06;;;15.10;53.22
61287;BME280;56412;53.148;8.204;2022-09-29T10:03:00;100242.94;;;15.42;53.09
61287;BME280;56412;53.148;8.204;2022-09-29T10:05:31;100242.00;;;15.74;52.79
61287;BME280;56412;53.148;8.204;2022-09-29T10:08:01;100238.59;;;16.61;51.62
61287;BME280;56412;53.148;8.204;2022-09-29T10:10:28;100250.97;;;16.29;51.57
61287;BME280;56412;53.148;8.204;2022-09-29T10:13:04;100243.16;;;16.49;50.82
61287;BME280;56412;53.148;8.204;2022-09-29T10:15:41;100244.34;;;16.93;49.69
61287;BME280;56412;53.148;8.204;2022-09-29T10:18:12;100240.91;;;16.73;50.37
61287;BME280;56412;53.148;8.204;2022-09-29T10:20:42;100245.75;;;16.68;49.72
61287;BME280;56412;53.148;8.204;2022-09-29T10:26:34;100245.47;;;17.93;48.26
61287;BME280;56412;53.148;8.204;2022-09-29T10:28:51;100242.69;;;18.66;46.83
61287;BME280;56412;53.148;8.204;2022-09-29T10:33:45;100250.19;;;18.61;46.65
61287;BME280;56412;53.148;8.204;2022-09-29T10:36:14;100242.94;;;19.25;45.63
61287;BME280;56412;53.148;8.204;2022-09-29T10:38:39;100243.72;;;20.02;44.15
61287;BME280;56412;53.148;8.204;2022-09-29T10:41:11;100249.03;;;20.76;42.84
61287;BME280;56412;53.148;8.204;2022-09-29T10:43:37;100254.16;;;20.53;42.88
61287;BME280;56412;53.148;8.204;2022-09-29T10:46:31;100257.25;;;19.31;44.09
61287;BME280;56412;53.148;8.204;2022-09-29T10:49:09;100259.50;;;19.25;45.08
61287;BME280;56412;53.148;8.204;2022-09-29T10:51:39;100259.44;;;19.09;43.43
61287;BME280;56412;53.148;8.204;2022-09-29T10:54:13;100258.78;;;18.27;45.88
61287;BME280;56412;53.148;8.204;2022-09-29T10:56:44;100264.00;;;17.91;45.93
61287;BME280;56412;53.148;8.204;2022-09-29T10:59:12;100257.66;;;18.48;46.13
61287;BME280;56412;53.148;8.204;2022-09-29T11:01:43;100254.56;;;19.22;43.96
61287;BME280;56412;53.148;8.204;2022-09-29T11:04:15;100258.34;;;19.54;43.09
61287;BME280;56412;53.148;8.204;2022-09-29T11:06:44;100263.28;;;20.00;43.49
61287;BME280;56412;53.148;8.204;2022-09-29T11:11:51;100261.25;;;20.77;40.70
61287;BME280;56412;53.148;8.204;2022-09-29T11:14:28;100264.59;;;19.53;42.87
61287;BME280;56412;53.148;8.204;2022-09-29T11:16:57;100267.66;;;19.74;43.71
61287;BME280;56412;53.148;8.204;2022-09-29T11:19:24;100270.00;;;20.02;42.75
61287;BME280;56412;53.148;8.204;2022-09-29T11:27:13;100266.38;;;21.34;40.62
61287;BME280;56412;53.148;8.204;2022-09-29T11:33:13;100267.91;;;20.22;41.67
61287;BME280;56412;53.148;8.204;2022-09-29T11:38:20;100261.72;;;20.48;40.54
61287;BME280;56412;53.148;8.204;2022-09-29T11:49:22;100276.31;;;20.26;40.88
61287;BME280;56412;53.148;8.204;2022-09-29T12:01:02;100279.03;;;19.57;42.38
61287;BME280;56412;53.148;8.204;2022-09-29T12:03:38;100280.75;;;20.33;41.11
61287;BME280;56412;53.148;8.204;2022-09-29T12:09:14;100284.66;;;20.05;40.56
61287;BME280;56412;53.148;8.204;2022-09-29T12:17:35;100273.06;;;20.89;40.78
61287;BME280;56412;53.148;8.204;2022-09-29T12:20:13;100278.06;;;20.09;39.53
61287;BME280;56412;53.148;8.204;2022-09-29T12:22:42;100280.75;;;19.40;41.28
61287;BME280;56412;53.148;8.204;2022-09-29T12:25:12;100276.31;;;19.41;41.41
61287;BME280;56412;53.148;8.204;2022-09-29T12:27:41;100275.75;;;20.06;41.00
61287;BME280;56412;53.148;8.204;2022-09-29T12:30:17;100274.88;;;20.89;38.71
61287;BME280;56412;53.148;8.204;2022-09-29T12:32:53;100271.22;;;20.49;38.95
61287;BME280;56412;53.148;8.204;2022-09-29T12:40:45;100270.56;;;20.30;40.36
61287;BME280;56412;53.148;8.204;2022-09-29T12:43:38;100278.84;;;19.85;41.23
61287;BME280;56412;53.148;8.204;2022-09-29T12:46:21;100278.25;;;20.07;40.42
61287;BME280;56412;53.148;8.204;2022-09-29T12:51:37;100275.34;;;21.00;39.39
61287;BME280;56412;53.148;8.204;2022-09-29T12:56:38;100281.69;;;22.40;37.04
61287;BME280;56412;53.148;8.204;2022-09-29T13:02:29;100275.41;;;23.32;33.76
61287;BME280;56412;53.148;8.204;2022-09-29T13:07:46;100286.03;;;20.50;38.50
61287;BME280;56412;53.148;8.204;2022-09-29T13:10:25;100291.06;;;20.10;38.22
61287;BME280;56412;53.148;8.204;2022-09-29T13:23:54;100296.56;;;21.07;38.15
61287;BME280;56412;53.148;8.204;2022-09-29T13:26:34;100294.56;;;21.81;37.01
61287;BME280;56412;53.148;8.204;2022-09-29T13:29:21;100302.44;;;21.89;36.22
61287;BME280;56412;53.148;8.204;2022-09-29T13:31:50;100292.06;;;21.48;38.08
61287;BME280;56412;53.148;8.204;2022-09-29T13:34:21;100296.84;;;21.84;37.66
61287;BME280;56412;53.148;8.204;2022-09-29T13:37:00;100294.31;;;21.60;36.27
61287;BME280;56412;53.148;8.204;2022-09-29T13:39:31;100290.34;;;21.64;37.26
61287;BME280;56412;53.148;8.204;2022-09-29T13:41:57;100291.44;;;21.30;37.17
61287;BME280;56412;53.148;8.204;2022-09-29T13:45:35;100293.06;;;21.31;37.13
61287;BME280;56412;53.148;8.204;2022-09-29T13:47:58;100288.22;;;20.54;38.14
61287;BME280;56412;53.148;8.204;2022-09-29T13:58:24;100290.63;;;20.31;37.56
61287;BME280;56412;53.148;8.204;2022-09-29T14:00:51;100287.38;;;20.54;37.87
61287;BME280;56412;53.148;8.204;2022-09-29T14:03:22;100289.34;;;20.84;37.49
61287;BME280;56412;53.148;8.204;2022-09-29T14:05:53;100291.97;;;20.93;37.16
61287;BME280;56412;53.148;8.204;2022-09-29T14:08:22;100294.75;;;20.42;38.42
61287;BME280;56412;53.148;8.204;2022-09-29T14:10:57;100294.28;;;20.55;38.65
61287;BME280;56412;53.148;8.204;2022-09-29T14:13:31;100292.75;;;20.28;38.92
61287;BME280;56412;53.148;8.204;2022-09-29T14:16:29;100299.97;;;20.26;38.02
61287;BME280;56412;53.148;8.204;2022-09-29T14:19:04;100299.69;;;20.45;37.91
61287;BME280;56412;53.148;8.204;2022-09-29T14:21:49;100297.06;;;20.45;37.72
61287;BME280;56412;53.148;8.204;2022-09-29T14:29:51;100307.75;;;19.85;37.78
61287;BME280;56412;53.148;8.204;2022-09-29T14:33:07;100315.72;;;19.41;39.41
61287;BME280;56412;53.148;8.204;2022-09-29T14:37:44;100322.69;;;19.24;39.84
61287;BME280;56412;53.148;8.204;2022-09-29T14:40:17;100329.72;;;19.23;40.69
61287;BME280;56412;53.148;8.204;2022-09-29T14:48:55;100341.81;;;18.09;45.47
61287;BME280;56412;53.148;8.204;2022-09-29T14:51:55;100345.44;;;18.44;44.88
61287;BME280;56412;53.148;8.204;2022-09-29T14:54:38;100346.19;;;18.18;45.78
61287;BME280;56412;53.148;8.204;2022-09-29T14:57:23;100350.34;;;17.83;46.77
61287;BME280;56412;53.148;8.204;2022-09-29T15:02:36;100352.09;;;17.92;46.60
61287;BME280;56412;53.148;8.204;2022-09-29T15:05:12;100343.00;;;17.87;46.78
61287;BME280;56412;53.148;8.204;2022-09-29T15:07:58;100348.28;;;17.67;47.44
61287;BME280;56412;53.148;8.204;2022-09-29T15:10:27;100353.28;;;17.61;47.48
61287;BME280;56412;53.148;8.204;2022-09-29T15:13:13;100352.72;;;17.67;47.48
61287;BME280;56412;53.148;8.204;2022-09-29T15:15:48;100364.00;;;17.77;47.74
61287;BME280;56412;53.148;8.204;2022-09-29T15:18:27;100368.94;;;17.33;48.38
61287;BME280;56412;53.148;8.204;2022-09-29T15:21:31;100374.88;;;17.16;48.98
61287;BME280;56412;53.148;8.204;2022-09-29T15:27:04;100397.53;;;15.97;52.42
61287;BME280;56412;53.148;8.204;2022-09-29T15:29:35;100386.44;;;16.15;53.18
61287;BME280;56412;53.148;8.204;2022-09-29T15:32:01;100397.69;;;15.54;54.48
61287;BME280;56412;53.148;8.204;2022-09-29T15:34:27;100398.31;;;15.04;56.24
61287;BME280;56412;53.148;8.204;2022-09-29T15:36:54;100401.31;;;14.34;58.81
61287;BME280;56412;53.148;8.204;2022-09-29T15:39:34;100408.06;;;14.91;57.74
61287;BME280;56412;53.148;8.204;2022-09-29T15:42:13;100394.38;;;14.77;58.24